Timiskaming Regional Airport
CYXR : rendu visible

Aérodrome :











RETROUVEZ-NOUS SUR...

 
LOGIN :

S'inscrire | Disclaimer

   EN    FR    IT 

 









Légende :    VFR   VFR Marginal   IFR   IFR Intensif   IFR Très Intensif
Visi : 
Plafond : 
>= 8 km
>= 3000ft
5 à 8 km
1000 à 3000 ft
1500m à 5 km
500 à 1000 ft
800 à 1500m
200 à 500 ft
< 800m
< 200 ft
Symboles :   Orages  Brouillard  Fortes neiges  Fortes précipitations  Vent > 20 kt






- Altitude de l'aérodrome : 798 ft
- Code IATA : YXR


CYXR - Timiskaming Regional

DERNIER METAR :
  • 211500Z AUTO 14011KT 9SM OVC012 01/00 A2992 RMK SLP146

METARs EXPIRÉS :
  • 211424Z AUTO 14009KT 9SM BKN012 OVC029 01/00 A2994 RMK SLP152
  • 211406Z AUTO 14010KT 9SM SCT010 OVC029 01/01 A2995 RMK SLP155
  • 211351Z AUTO 14011KT 9SM OVC010 01/00 A2996 RMK SLP158
  • 211328Z AUTO 14010KT 9SM -RA OVC010 01/01 A2997 RMK SLP163
  • 211300Z AUTO 14011KT 9SM BKN012 OVC029 01/00 A2998 RMK SLP165
  • 211250Z AUTO 15010KT 9SM BKN010 OVC029 01/00 A2999 RMK SLP168

TAF TAF CYXR
Valide du 21 à 13h jusqu'au 22 à 01h UTC


211238Z 2113/2201 18008KT P6SM OVC015
TEMPO 2113/2117 SCT015 OVC030
FM211700 15012G22KT P6SM BKN030 OVC060
TEMPO 2117/2119 4SM -RASN BR OVC020
FM211900 15012G22KT 6SM -RA BR OVC020
TEMPO 2119/2201 2SM -RASN BR OVC008
BECMG 2122/2124 14008KT RMK FCST BASED ON AUTO OBS. NXT FCST BY 211800Z



MET'MAP, la Météo Aéronautique d'un coup d'oeil ! - Copyright ORBIFLY Décembre 2007 - Disclaimer

ORBIFLY MET'MAP TEAM :

Programmation & Développement : Alexandra Zaïnal
Conception & Développement : Baudouin d'Aumeries
Co-Programmation & Développement : Marc-Olivier Méhu
Soutien technique & logistique : Manuel Goepfert

Contact : metmap@orbifly.com




SOURCES & CREDITS :

   NOAA       Earth
Advisory